createdAt,value
2022-10-18T00:00:54.501Z,94130.84
2022-10-18T00:03:57.510Z,94127.59
2022-10-18T00:07:01.448Z,94133.94
2022-10-18T00:10:05.681Z,94128.16
2022-10-18T00:13:09.210Z,94130.06
2022-10-18T00:16:14.694Z,94131.97
2022-10-18T00:19:18.296Z,94127.44
2022-10-18T00:22:21.418Z,94136.59
2022-10-18T00:25:24.263Z,94131.38
2022-10-18T00:28:27.251Z,94133.31
2022-10-18T00:31:33.855Z,94124.38
2022-10-18T00:34:38.671Z,94128.03
2022-10-18T00:37:42.535Z,94132.13
2022-10-18T00:40:46.439Z,94118.63
2022-10-18T00:43:52.321Z,94116.44
2022-10-18T00:47:12.133Z,94113.28
2022-10-18T00:50:16.908Z,94098.47
2022-10-18T00:53:23.615Z,94092.03
2022-10-18T00:56:31.104Z,94093.41
2022-10-18T00:59:36.214Z,94082.97
2022-10-18T01:02:42.737Z,94092.09
2022-10-18T01:05:48.744Z,94095.63
2022-10-18T01:09:00.539Z,94102.88
2022-10-18T01:12:13.175Z,94100.09
2022-10-18T01:15:32.811Z,94100.91
2022-10-18T01:18:54.102Z,94095.84
2022-10-18T01:22:15.097Z,94094.41
2022-10-18T01:25:30.566Z,94092.56
2022-10-18T01:28:50.690Z,94076.19
2022-10-18T01:32:08.359Z,94067.50
2022-10-18T01:35:18.806Z,94068.94
2022-10-18T01:38:25.932Z,94063.09
2022-10-18T01:41:30.615Z,94069.28
2022-10-18T01:44:35.631Z,94072.97
2022-10-18T01:47:40.775Z,94066.41
2022-10-18T01:50:43.701Z,94064.94
2022-10-18T01:53:47.014Z,94064.59
2022-10-18T01:57:09.327Z,94068.59
2022-10-18T02:00:25.713Z,94054.72
2022-10-18T02:03:30.589Z,94048.81
2022-10-18T02:06:39.189Z,94047.50
2022-10-18T02:13:26.133Z,94032.53
2022-10-18T02:16:31.856Z,94026.03
2022-10-18T02:19:51.140Z,94016.81
2022-10-18T02:22:58.243Z,94016.69
2022-10-18T02:26:01.900Z,94014.03
2022-10-18T02:29:05.798Z,94004.69
2022-10-18T02:32:52.323Z,93996.41
2022-10-18T02:36:03.422Z,94008.47
2022-10-18T02:39:12.532Z,94001.28
2022-10-18T02:42:16.817Z,93993.44
2022-10-18T02:45:21.623Z,93994.19
2022-10-18T02:48:25.233Z,93983.97
2022-10-18T02:51:28.785Z,93963.16
2022-10-18T02:54:32.459Z,93975.03
2022-10-18T02:57:35.557Z,93983.22
2022-10-18T03:00:39.192Z,93977.34
2022-10-18T03:03:42.579Z,93959.84
2022-10-18T03:06:45.436Z,93938.03
2022-10-18T03:09:48.657Z,93929.63
2022-10-18T03:12:52.170Z,93914.59
2022-10-18T03:15:55.668Z,93924.13
2022-10-18T03:18:58.512Z,93925.31
2022-10-18T03:22:03.681Z,93931.53
2022-10-18T03:25:07.563Z,93926.41
2022-10-18T03:28:11.488Z,93928.88
2022-10-18T03:31:14.977Z,93936.31
2022-10-18T03:34:19.276Z,93935.25
2022-10-18T03:37:23.225Z,93926.72
2022-10-18T03:40:27.225Z,93922.75
2022-10-18T03:43:30.820Z,93922.03
2022-10-18T03:46:34.922Z,93901.53
2022-10-18T03:49:38.441Z,93887.53
2022-10-18T03:52:41.781Z,93885.19
2022-10-18T03:55:44.719Z,93880.22
2022-10-18T03:58:48.286Z,93880.28
2022-10-18T04:01:52.542Z,93870.00
2022-10-18T04:04:56.725Z,93869.47
2022-10-18T04:08:00.275Z,93868.78
2022-10-18T04:11:12.953Z,93859.28
2022-10-18T04:14:16.520Z,93869.06
2022-10-18T04:17:20.071Z,93858.03
2022-10-18T04:20:24.320Z,93854.13
2022-10-18T04:23:27.850Z,93851.84
2022-10-18T04:26:30.708Z,93846.59
2022-10-18T04:29:34.451Z,93844.19
2022-10-18T04:32:37.993Z,93829.63
2022-10-18T04:35:41.487Z,93830.19
2022-10-18T04:38:44.724Z,93825.50
2022-10-18T04:41:48.329Z,93815.81
2022-10-18T04:44:52.059Z,93821.47
2022-10-18T04:47:56.130Z,93815.50
2022-10-18T04:50:59.097Z,93802.13
2022-10-18T04:54:03.631Z,93799.50
2022-10-18T04:57:06.611Z,93791.88
2022-10-18T05:00:10.219Z,93791.81
2022-10-18T05:03:14.871Z,93789.22
2022-10-18T05:06:18.415Z,93774.84
2022-10-18T05:09:25.063Z,93762.47
2022-10-18T05:12:29.244Z,93756.09
2022-10-18T05:15:32.378Z,93751.53
2022-10-18T05:18:35.765Z,93751.69
2022-10-18T05:21:38.569Z,93748.56
2022-10-18T05:24:41.842Z,93743.88
2022-10-18T05:27:45.425Z,93734.03
2022-10-18T05:30:49.382Z,93732.84
2022-10-18T05:33:53.014Z,93717.94
2022-10-18T05:36:56.822Z,93718.03
2022-10-18T05:40:00.491Z,93714.63
2022-10-18T05:43:03.707Z,93705.16
2022-10-18T05:46:13.596Z,93696.59
2022-10-18T05:49:17.100Z,93691.22
2022-10-18T05:52:19.966Z,93680.69
2022-10-18T05:55:23.875Z,93680.38
2022-10-18T05:58:26.918Z,93671.72
2022-10-18T06:01:30.837Z,93669.56
2022-10-18T06:04:35.300Z,93654.66
2022-10-18T06:07:39.129Z,93659.94
2022-10-18T06:10:42.252Z,93654.19
2022-10-18T06:13:50.333Z,93646.34
2022-10-18T06:16:53.417Z,93645.13
2022-10-18T06:19:57.451Z,93640.31
2022-10-18T06:23:00.420Z,93635.34
2022-10-18T06:26:06.952Z,93622.56
2022-10-18T06:29:10.613Z,93613.31
2022-10-18T06:32:14.057Z,93613.75
2022-10-18T06:35:17.313Z,93610.00
2022-10-18T06:38:21.266Z,93605.47
2022-10-18T06:41:24.853Z,93598.38
2022-10-18T06:44:28.023Z,93596.41
2022-10-18T06:47:30.841Z,93590.09
2022-10-18T06:50:34.097Z,93590.31
2022-10-18T06:53:43.976Z,93580.94
2022-10-18T06:56:58.829Z,93569.72
2022-10-18T07:00:02.660Z,93567.88
2022-10-18T07:03:06.619Z,93563.53
2022-10-18T07:06:12.045Z,93554.50
2022-10-18T07:09:16.040Z,93551.72
2022-10-18T07:12:18.941Z,93541.63
2022-10-18T07:15:24.855Z,93537.72
2022-10-18T07:18:28.775Z,93541.94
2022-10-18T07:21:32.631Z,93535.75
2022-10-18T07:24:36.129Z,93529.69
2022-10-18T07:27:41.961Z,93533.09
2022-10-18T07:30:45.248Z,93521.84
2022-10-18T07:33:48.468Z,93526.56
2022-10-18T07:36:52.537Z,93525.22
2022-10-18T07:39:56.182Z,93525.34
2022-10-18T07:43:04.444Z,93521.41
2022-10-18T07:46:08.487Z,93515.63
2022-10-18T07:49:12.301Z,93519.84
2022-10-18T07:52:15.861Z,93527.25
2022-10-18T07:55:19.075Z,93514.78
2022-10-18T07:58:22.647Z,93521.47
2022-10-18T08:01:26.245Z,93517.16
2022-10-18T08:04:29.208Z,93512.53
2022-10-18T08:07:34.693Z,93517.34
2022-10-18T08:10:38.431Z,93512.84
2022-10-18T08:13:42.751Z,93516.44
2022-10-18T08:16:46.322Z,93507.47
2022-10-18T08:19:58.569Z,93499.16
2022-10-18T08:23:13.105Z,93506.66
2022-10-18T08:26:22.265Z,93507.78
2022-10-18T08:29:29.224Z,93501.28
2022-10-18T08:32:36.058Z,93501.78
2022-10-18T08:35:39.354Z,93495.69
2022-10-18T08:38:44.431Z,93490.63
2022-10-18T08:42:14.221Z,93485.78
2022-10-18T08:45:37.466Z,93493.22
2022-10-18T08:48:45.801Z,93495.56
2022-10-18T08:51:52.030Z,93503.53
2022-10-18T08:55:10.843Z,93501.59
2022-10-18T08:58:27.245Z,93501.06
2022-10-18T09:01:52.412Z,93493.91
2022-10-18T09:05:08.174Z,93492.94
2022-10-18T09:08:26.008Z,93499.78
2022-10-18T09:11:34.888Z,93484.19
2022-10-18T09:15:13.849Z,93489.06
2022-10-18T09:18:47.359Z,93482.97
2022-10-18T09:22:05.001Z,93475.84
2022-10-18T09:25:38.089Z,93482.78
2022-10-18T09:28:59.527Z,93499.13
2022-10-18T09:32:23.375Z,93488.03
2022-10-18T09:35:43.992Z,93487.56
2022-10-18T09:38:56.125Z,93481.59
2022-10-18T09:42:27.018Z,93471.47
2022-10-18T09:45:40.711Z,93467.28
2022-10-18T09:48:50.120Z,93472.25
2022-10-18T09:51:55.027Z,93466.63
2022-10-18T09:55:02.367Z,93460.13
2022-10-18T09:58:08.658Z,93469.38
2022-10-18T10:01:16.619Z,93470.28
2022-10-18T10:04:19.849Z,93470.06
2022-10-18T10:07:32.561Z,93459.53
2022-10-18T10:10:46.851Z,93466.50
2022-10-18T10:13:50.305Z,93465.44
2022-10-18T10:17:21.769Z,93459.19
2022-10-18T10:20:31.478Z,93465.81
2022-10-18T10:23:56.742Z,93459.97
2022-10-18T10:27:06.944Z,93450.97
2022-10-18T10:30:25.713Z,93448.91
2022-10-18T10:33:40.072Z,93454.13
2022-10-18T10:36:55.602Z,93443.81
2022-10-18T10:40:38.945Z,93449.50
2022-10-18T10:43:46.376Z,93448.78
2022-10-18T10:46:51.921Z,93449.88
2022-10-18T10:49:58.197Z,93445.53
2022-10-18T10:53:04.391Z,93441.22
2022-10-18T10:56:24.877Z,93452.94
2022-10-18T11:02:59.306Z,93445.69
2022-10-18T11:06:48.274Z,93445.41
2022-10-18T11:10:16.406Z,93437.69
2022-10-18T11:13:50.004Z,93441.75
2022-10-18T11:17:31.333Z,93429.44
2022-10-18T11:20:50.140Z,93424.81
2022-10-18T11:23:54.550Z,93418.34
2022-10-18T11:27:19.641Z,93419.53
2022-10-18T11:30:42.245Z,93417.31
2022-10-18T11:34:09.270Z,93414.50
2022-10-18T11:37:41.200Z,93421.91
2022-10-18T11:41:08.791Z,93410.88
2022-10-18T11:44:28.946Z,93398.06
2022-10-18T11:47:46.647Z,93409.47
2022-10-18T11:51:23.767Z,93414.31
2022-10-18T11:54:50.083Z,93417.28
2022-10-18T11:58:33.646Z,93410.47
2022-10-18T12:01:56.446Z,93396.28
2022-10-18T12:05:24.209Z,93393.38
2022-10-18T12:08:42.432Z,93393.81
2022-10-18T12:11:55.801Z,93385.56
2022-10-18T12:15:31.423Z,93386.69
2022-10-18T12:18:50.109Z,93380.88
2022-10-18T12:22:28.159Z,93377.63
2022-10-18T12:25:41.186Z,93368.59
2022-10-18T12:29:18.292Z,93374.75
2022-10-18T12:32:56.279Z,93374.38
2022-10-18T12:36:33.426Z,93373.59
2022-10-18T12:40:09.816Z,93370.25
2022-10-18T12:43:42.915Z,93373.03
2022-10-18T12:47:01.390Z,93358.53
2022-10-18T12:50:10.442Z,93365.47
2022-10-18T12:53:15.548Z,93372.50
2022-10-18T12:56:33.233Z,93372.97
2022-10-18T12:59:37.586Z,93366.44
2022-10-18T13:02:42.459Z,93374.84
2022-10-18T13:05:54.388Z,93369.81
2022-10-18T13:09:20.628Z,93364.47
2022-10-18T13:12:25.753Z,93372.16
2022-10-18T13:15:38.141Z,93368.91
2022-10-18T13:18:54.397Z,93370.72
2022-10-18T13:22:13.083Z,93365.94
2022-10-18T13:25:27.879Z,93372.47
2022-10-18T13:28:36.599Z,93370.00
2022-10-18T13:31:57.846Z,93372.59
2022-10-18T13:35:02.171Z,93371.19
2022-10-18T13:38:17.238Z,93372.69
2022-10-18T13:44:31.021Z,93370.56
2022-10-18T13:47:37.663Z,93366.31
2022-10-18T13:50:43.762Z,93370.31
2022-10-18T13:54:05.464Z,93369.91
2022-10-18T13:57:34.277Z,93367.72
2022-10-18T14:01:39.047Z,93363.38
2022-10-18T14:05:25.078Z,93368.47
2022-10-18T14:08:53.390Z,93357.19
2022-10-18T14:12:30.432Z,93365.22
2022-10-18T14:15:46.531Z,93370.69
2022-10-18T14:18:56.335Z,93359.41
2022-10-18T14:22:20.359Z,93361.25
2022-10-18T14:25:39.325Z,93353.63
2022-10-18T14:29:00.288Z,93353.66
2022-10-18T14:32:09.013Z,93343.50
2022-10-18T14:35:37.127Z,93342.78
2022-10-18T14:39:05.974Z,93335.50
2022-10-18T14:42:22.790Z,93342.44
2022-10-18T14:45:28.962Z,93336.63
2022-10-18T14:48:34.183Z,93348.25
2022-10-18T14:51:41.544Z,93349.00
2022-10-18T14:54:46.618Z,93360.69
2022-10-18T14:57:50.930Z,93360.66
2022-10-18T15:00:55.398Z,93365.75
2022-10-18T15:04:00.468Z,93361.81
2022-10-18T15:07:07.471Z,93371.25
2022-10-18T15:10:22.440Z,93366.53
2022-10-18T15:13:27.524Z,93364.34
2022-10-18T15:16:33.109Z,93366.06
2022-10-18T15:23:28.385Z,93365.34
2022-10-18T15:26:47.976Z,93356.56
2022-10-18T15:29:51.712Z,93348.13
2022-10-18T15:33:02.491Z,93348.47
2022-10-18T15:36:29.106Z,93356.50
2022-10-18T15:39:33.098Z,93352.56
2022-10-18T15:42:38.379Z,93354.44
2022-10-18T15:45:48.889Z,93354.84
2022-10-18T15:48:51.848Z,93362.53
2022-10-18T15:52:36.632Z,93357.81
2022-10-18T15:55:48.179Z,93353.09
2022-10-18T15:58:52.277Z,93350.19
2022-10-18T16:01:55.750Z,93344.00
2022-10-18T16:05:03.489Z,93344.00
2022-10-18T16:08:07.387Z,93353.44
2022-10-18T16:11:25.779Z,93351.63
2022-10-18T16:14:30.639Z,93349.44
2022-10-18T16:17:34.375Z,93349.06
2022-10-18T16:20:38.709Z,93347.16
2022-10-18T16:23:42.465Z,93345.31
2022-10-18T16:26:46.190Z,93348.59
2022-10-18T16:29:48.998Z,93348.31
2022-10-18T16:32:52.894Z,93349.81
2022-10-18T16:35:56.542Z,93362.94
2022-10-18T16:39:03.085Z,93347.72
2022-10-18T16:42:05.854Z,93344.81
2022-10-18T16:45:10.634Z,93343.34
2022-10-18T16:48:18.515Z,93347.34
2022-10-18T16:51:22.075Z,93345.88
2022-10-18T16:54:25.143Z,93341.19
2022-10-18T16:57:27.881Z,93334.28
2022-10-18T17:00:31.144Z,93329.91
2022-10-18T17:03:34.885Z,93332.81
2022-10-18T17:06:38.439Z,93329.19
2022-10-18T17:09:41.561Z,93337.53
2022-10-18T17:12:44.881Z,93323.38
2022-10-18T17:15:48.684Z,93323.38
2022-10-18T17:18:52.282Z,93316.09
2022-10-18T17:22:00.152Z,93333.16
2022-10-18T17:25:06.303Z,93324.06
2022-10-18T17:28:14.026Z,93329.16
2022-10-18T17:31:17.465Z,93331.34
2022-10-18T17:34:21.653Z,93322.28
2022-10-18T17:37:25.202Z,93323.00
2022-10-18T17:40:28.390Z,93316.84
2022-10-18T17:43:32.057Z,93312.50
2022-10-18T17:46:34.987Z,93313.22
2022-10-18T17:49:38.634Z,93322.66
2022-10-18T17:56:01.239Z,93331.41
2022-10-18T17:59:05.233Z,93321.56
2022-10-18T18:02:08.144Z,93320.50
2022-10-18T18:05:11.563Z,93337.56
2022-10-18T18:08:15.458Z,93333.94
2022-10-18T18:11:19.500Z,93344.13
2022-10-18T18:14:22.708Z,93341.56
2022-10-18T18:17:33.977Z,93341.22
2022-10-18T18:20:42.899Z,93343.75
2022-10-18T18:23:46.707Z,93334.31
2022-10-18T18:26:49.741Z,93343.41
2022-10-18T18:29:53.557Z,93339.72
2022-10-18T18:32:56.959Z,93336.84
2022-10-18T18:36:01.257Z,93335.38
2022-10-18T18:39:09.687Z,93336.47
2022-10-18T18:42:12.895Z,93340.47
2022-10-18T18:45:15.722Z,93333.56
2022-10-18T18:48:19.865Z,93343.00
2022-10-18T18:51:25.177Z,93336.13
2022-10-18T18:54:30.247Z,93331.00
2022-10-18T18:57:33.312Z,93334.63
2022-10-18T19:00:43.305Z,93340.44
2022-10-18T19:03:50.656Z,93335.72
2022-10-18T19:06:54.225Z,93332.47
2022-10-18T19:09:57.135Z,93341.53
2022-10-18T19:13:00.119Z,93335.03
2022-10-18T19:16:20.649Z,93336.09
2022-10-18T19:19:26.180Z,93334.66
2022-10-18T19:22:30.244Z,93340.09
2022-10-18T19:25:33.642Z,93335.78
2022-10-18T19:28:37.158Z,93336.84
2022-10-18T19:31:41.127Z,93332.88
2022-10-18T19:34:45.257Z,93331.03
2022-10-18T19:37:48.700Z,93327.03
2022-10-18T19:40:53.860Z,93334.69
2022-10-18T19:43:58.092Z,93324.88
2022-10-18T19:47:01.577Z,93331.03
2022-10-18T19:50:04.576Z,93333.22
2022-10-18T19:53:08.030Z,93336.13
2022-10-18T19:56:19.396Z,93332.47
2022-10-18T19:59:23.826Z,93343.00
2022-10-18T20:02:27.079Z,93343.72
2022-10-18T20:05:30.257Z,93349.56
2022-10-18T20:08:35.264Z,93334.69
2022-10-18T20:11:38.864Z,93338.66
2022-10-18T20:14:42.376Z,93335.75
2022-10-18T20:17:45.218Z,93345.91
2022-10-18T20:20:49.124Z,93343.00
2022-10-18T20:23:53.632Z,93349.91
2022-10-18T20:26:57.028Z,93347.34
2022-10-18T20:30:00.519Z,93354.97
2022-10-18T20:33:03.391Z,93349.88
2022-10-18T20:36:09.148Z,93353.50
2022-10-18T20:39:12.655Z,93343.38
2022-10-18T20:42:15.696Z,93356.09
2022-10-18T20:45:19.259Z,93365.50
2022-10-18T20:48:22.862Z,93378.97
2022-10-18T20:51:26.148Z,93374.97
2022-10-18T20:54:29.028Z,93374.59
2022-10-18T20:57:34.280Z,93374.22
2022-10-18T21:00:39.363Z,93382.22
2022-10-18T21:03:44.493Z,93388.75
2022-10-18T21:06:47.345Z,93391.28
2022-10-18T21:09:51.175Z,93397.47
2022-10-18T21:12:54.217Z,93389.84
2022-10-18T21:15:58.780Z,93394.94
2022-10-18T21:19:06.398Z,93392.38
2022-10-18T21:22:09.525Z,93406.53
2022-10-18T21:25:12.460Z,93413.44
2022-10-18T21:28:17.223Z,93405.47
2022-10-18T21:31:22.845Z,93411.97
2022-10-18T21:34:27.079Z,93412.69
2022-10-18T21:37:30.824Z,93412.34
2022-10-18T21:40:37.138Z,93415.97
2022-10-18T21:43:41.728Z,93405.09
2022-10-18T21:46:45.216Z,93406.91
2022-10-18T21:49:48.065Z,93406.53
2022-10-18T21:52:51.396Z,93415.59
2022-10-18T21:55:54.945Z,93417.41
2022-10-18T21:58:59.357Z,93424.69
2022-10-18T22:02:03.447Z,93427.97
2022-10-18T22:05:09.785Z,93434.50
2022-10-18T22:08:14.268Z,93438.88
2022-10-18T22:11:18.713Z,93446.81
2022-10-18T22:14:22.697Z,93438.47
2022-10-18T22:17:25.566Z,93442.84
2022-10-18T22:20:28.524Z,93460.28
2022-10-18T22:23:37.199Z,93449.41
2022-10-18T22:26:42.231Z,93456.66
2022-10-18T22:29:45.123Z,93454.84
2022-10-18T22:32:48.715Z,93442.13
2022-10-18T22:35:52.107Z,93461.38
2022-10-18T22:38:55.212Z,93455.19
2022-10-18T22:41:58.458Z,93453.38
2022-10-18T22:45:01.373Z,93455.53
2022-10-18T22:48:05.171Z,93453.00
2022-10-18T22:51:08.724Z,93453.03
2022-10-18T22:54:12.371Z,93452.31
2022-10-18T22:57:15.957Z,93464.69
2022-10-18T23:00:19.517Z,93461.06
2022-10-18T23:03:22.569Z,93466.84
2022-10-18T23:06:31.939Z,93464.28
2022-10-18T23:09:34.956Z,93472.63
2022-10-18T23:12:38.229Z,93482.75
2022-10-18T23:15:41.400Z,93492.56
2022-10-18T23:18:44.949Z,93499.84
2022-10-18T23:21:48.508Z,93505.25
2022-10-18T23:24:52.247Z,93512.16
2022-10-18T23:27:55.253Z,93514.34
2022-10-18T23:30:58.198Z,93523.75
2022-10-18T23:34:03.760Z,93516.47
2022-10-18T23:37:06.946Z,93522.63
2022-10-18T23:40:10.355Z,93529.53
2022-10-18T23:43:13.530Z,93534.19
2022-10-18T23:46:17.811Z,93532.34
2022-10-18T23:49:21.660Z,93543.56
2022-10-18T23:52:25.311Z,93529.31
2022-10-18T23:55:28.296Z,93542.03
2022-10-18T23:58:33.316Z,93547.47
